Terminal Aerodrome Forecast
Issued by NWS

Home | Current Version | Previous Version | Text Only | Print | Product List | Glossary On
Versions: 1 2 3 4 5 6 7 8 9 10 11 12 13 14 15 16 17 18 19 20
000
FTUS43 KMPX 272353 CCA
TAFAXN
TAF COR
KAXN 272353Z 2800/2824 08007KT P6SM VCSH BKN009 OVC015
     FM280500 01004KT 4SM BR BKN007 OVC015
      TEMPO 2809/2812 OVC005
     FM281500 23007KT P6SM BKN025
     FM281800 28006KT P6SM -SHRA OVC050=

USA.gov is the U.S. government's official web portal to all federal, state and local government web resources and services.